Laughlin Air Force Base
KDLF : rendu visible

Aérodrome :











RETROUVEZ-NOUS SUR...

 
LOGIN :

S'inscrire | Disclaimer

   EN    FR    IT 

 









Légende :    VFR   VFR Marginal   IFR   IFR Intensif   IFR Très Intensif
Visi : 
Plafond : 
>= 8 km
>= 3000ft
5 à 8 km
1000 à 3000 ft
1500m à 5 km
500 à 1000 ft
800 à 1500m
200 à 500 ft
< 800m
< 200 ft
Symboles :   Orages  Brouillard  Fortes neiges  Fortes précipitations  Vent > 20 kt






- Altitude de l'aérodrome : 1082 ft


KDLF - Laughlin Air Force Base

DERNIER METAR :
  • 100756Z AUTO 02016G19KT 10SM OVC065 16/04 A3000 RMK AO2 SLP149 T01640044 $

METARs EXPIRÉS :
  • 100656Z AUTO 01013KT 10SM OVC060 18/05 A2998 RMK AO2 SLP142 T01750054 $
  • 100556Z AUTO 01012KT 10SM OVC060 18/06 A2997 RMK AO2 SLP140 60000 T01800059 10238 20179 403030116 51012 $

TAF AMD TAF KDLF
Valide du 10 à 02h jusqu'au 11 à 08h UTC


100253Z 1002/1108 02012G20KT 9999 SCT040 BKN060 510306 QNH2991INS
BECMG 1003/1004 01015G24KT 9999 SCT030 BKN050 510207 QNH2992INS
BECMG 1005/1006 36018G30KT 9999 BKN030 510009 QNH2994INS
BECMG 1007/1008 02012G18KT 8000 -SHRA BR SCT015 BKN024 QNH2998INS
BECMG 1011/1012 04010G15KT 6000 RA BR FEW009 BKN012 QNH3013INS
BECMG 1014/1015 03012KT 8000 BR FEW007 BKN010 620906 QNH3020INS
BECMG 1020/1021 36006KT 9999 NSW FEW012 BKN025 QNH3026INS
BECMG 1102/1103 02006KT 9999 BKN020 QNH3037INS TX20/1002Z TN12/1012Z LAST NO AMDS AFT 1002 NEXT 1011



MET'MAP, la Météo Aéronautique d'un coup d'oeil ! - Copyright ORBIFLY Décembre 2007 - Disclaimer

ORBIFLY MET'MAP TEAM :

Programmation & Développement : Alexandra Zaïnal
Sur une idée originale de : Baudouin d'Aumeries
Assistance à la programmation : Marc-Olivier Méhu
Soutien technique & logistique : Manuel Goepfert

Contact : metmap@orbifly.com




SOURCES & CREDITS :

   NOAA       Earth
Advisory